New Hill, North Carolina
Current Conditions -  °F | °C
As of 9:35 AM on Saturday 01 Nov 2014 (Local Time) from KTTA Reporting Station
Drizzle Drizzle  
Wind Chill: 40°   Ceiling: 4600
Heat Index: 46°   Visibility: 10mi
Dew Point: 44°   Wind: 13mph
Humidity: 96%   Direction: 360°N
Pressure: 29.73"   Gusts: 21mph
Location:  35.68°N, 78.94°W
Report Text: KTTA 011335Z AUTO 36011G18KT 10SM -DZ SCT005 SCT020 BKN046 08/07 A2973 RMK AO2 T00750069
Loading
Personal Weather Stations






























Interactive Weather Map
Tropical Storm Tracking
New forecast layout! Learn more

10-Day Weather Forecast

Advertisements
Track Severe Weather on mobile